Pagina principale
METAR-TAF:

METAR-TAF

Aeroporti :

Enugu, Nigeria

latitudine: 06-28N, longitudine: 007-33E, altezza: 137 m

Osservazione

Il bollettino è stato emesso 2 ore e 48 minuti fa, alle 20:00 UTC
Vento 4 kt da nord-ovest
Temperature 26°C
Umidità 51%
Pressione 1010 hPa
Visibilità: 2500 m
foschia

METAR: DNEN 222000Z 32004KT 2500 HZ NSC 26/15 Q1010 NOSIG

Ora: 23:48 (22:48 UTC)

Previsione

Il bollettino è stato emesso 5 ore e 48 minuti fa, alle 17:00 UTC
Previsione valida dal 22 alle 18 UTC al 23 alle 24 UTC
Vento 2 kt da direzioni variabili
Visibilità: 6000 m
Evoluzione graduale
dal 23 alle 08 UTC al 23 alle 10 UTC
Vento 12 kt da est/nord-est

TAF: DNEN 221700Z 2218/2324 VRB02KT 6000 NSC BECMG 2308/2310 06012KT

Osservazioni e previsioni meteorologiche di più di 4000 aeroporti (messaggi METAR e TAF).

Le stazioni disponibili sono rappresentate dai dischi gialli e rossi sulla carta.

Puntare il mouse per vedere il nome della stazione.

Clicca sopra per visualizzare le osservazioni e previsioni meteorologiche.

Per cambiare la mappa : fare clic sui pulsanti verdi con una croce nera per ingrandire, il pulsante verde con un trattino per diminuire, o sulla freccia verde per le mappe adiacenti.


METAR-TAF: